sensor_id;sensor_type;location;lat;lon;timestamp;P1;durP1;ratioP1;P2;durP2;ratioP2
11962;SDS011;62678;52.130;5.584;2023-04-01T00:00:25;24.38;;;17.17;;
11962;SDS011;62678;52.130;5.584;2023-04-01T00:02:52;21.38;;;16.63;;
11962;SDS011;62678;52.130;5.584;2023-04-01T00:05:18;24.33;;;17.75;;
11962;SDS011;62678;52.130;5.584;2023-04-01T00:07:45;22.70;;;17.25;;
11962;SDS011;62678;52.130;5.584;2023-04-01T00:10:12;24.30;;;17.33;;
11962;SDS011;62678;52.130;5.584;2023-04-01T00:12:40;25.88;;;17.35;;
11962;SDS011;62678;52.130;5.584;2023-04-01T00:15:09;25.52;;;18.35;;
11962;SDS011;62678;52.130;5.584;2023-04-01T00:17:37;26.38;;;18.95;;
11962;SDS011;62678;52.130;5.584;2023-04-01T00:20:05;30.67;;;19.35;;
11962;SDS011;62678;52.130;5.584;2023-04-01T00:22:34;30.92;;;19.48;;
11962;SDS011;62678;52.130;5.584;2023-04-01T00:25:01;33.78;;;19.55;;
11962;SDS011;62678;52.130;5.584;2023-04-01T00:27:29;30.73;;;19.40;;
11962;SDS011;62678;52.130;5.584;2023-04-01T00:29:56;32.85;;;19.88;;
11962;SDS011;62678;52.130;5.584;2023-04-01T00:32:24;36.47;;;21.02;;
11962;SDS011;62678;52.130;5.584;2023-04-01T00:34:52;37.38;;;20.83;;
11962;SDS011;62678;52.130;5.584;2023-04-01T00:37:22;36.05;;;20.02;;
11962;SDS011;62678;52.130;5.584;2023-04-01T00:39:49;35.42;;;20.08;;
11962;SDS011;62678;52.130;5.584;2023-04-01T00:42:16;31.45;;;18.88;;
11962;SDS011;62678;52.130;5.584;2023-04-01T00:44:45;34.83;;;19.23;;
11962;SDS011;62678;52.130;5.584;2023-04-01T00:47:14;37.08;;;20.77;;
11962;SDS011;62678;52.130;5.584;2023-04-01T00:49:43;41.80;;;20.52;;
11962;SDS011;62678;52.130;5.584;2023-04-01T00:52:14;38.58;;;20.92;;
11962;SDS011;62678;52.130;5.584;2023-04-01T00:54:44;40.80;;;21.75;;
11962;SDS011;62678;52.130;5.584;2023-04-01T00:57:15;45.17;;;22.98;;
11962;SDS011;62678;52.130;5.584;2023-04-01T00:59:48;48.00;;;24.15;;
11962;SDS011;62678;52.130;5.584;2023-04-01T01:02:19;51.88;;;25.48;;
11962;SDS011;62678;52.130;5.584;2023-04-01T01:04:47;55.83;;;26.67;;
11962;SDS011;62678;52.130;5.584;2023-04-01T01:07:17;56.53;;;27.88;;
11962;SDS011;62678;52.130;5.584;2023-04-01T01:09:51;57.72;;;27.55;;
11962;SDS011;62678;52.130;5.584;2023-04-01T01:12:23;63.40;;;29.65;;
11962;SDS011;62678;52.130;5.584;2023-04-01T01:14:59;64.95;;;30.48;;
11962;SDS011;62678;52.130;5.584;2023-04-01T01:17:35;51.42;;;27.70;;
11962;SDS011;62678;52.130;5.584;2023-04-01T01:26:43;61.78;;;29.40;;
11962;SDS011;62678;52.130;5.584;2023-04-01T01:29:24;65.47;;;30.30;;
11962;SDS011;62678;52.130;5.584;2023-04-01T01:32:03;54.72;;;28.98;;
11962;SDS011;62678;52.130;5.584;2023-04-01T01:34:40;65.47;;;29.88;;
11962;SDS011;62678;52.130;5.584;2023-04-01T01:37:15;55.03;;;29.35;;
11962;SDS011;62678;52.130;5.584;2023-04-01T01:39:44;62.78;;;29.38;;
11962;SDS011;62678;52.130;5.584;2023-04-01T01:42:15;59.33;;;29.38;;
11962;SDS011;62678;52.130;5.584;2023-04-01T01:44:45;59.25;;;29.75;;
11962;SDS011;62678;52.130;5.584;2023-04-01T01:47:15;63.70;;;28.80;;
11962;SDS011;62678;52.130;5.584;2023-04-01T01:49:43;50.35;;;26.45;;
11962;SDS011;62678;52.130;5.584;2023-04-01T01:52:11;54.92;;;27.55;;
11962;SDS011;62678;52.130;5.584;2023-04-01T01:54:46;58.85;;;26.80;;
11962;SDS011;62678;52.130;5.584;2023-04-01T01:57:14;52.85;;;25.33;;
11962;SDS011;62678;52.130;5.584;2023-04-01T01:59:43;48.88;;;24.92;;
11962;SDS011;62678;52.130;5.584;2023-04-01T02:02:13;48.75;;;24.80;;
11962;SDS011;62678;52.130;5.584;2023-04-01T02:04:42;46.67;;;24.42;;
11962;SDS011;62678;52.130;5.584;2023-04-01T02:07:12;45.58;;;24.27;;
11962;SDS011;62678;52.130;5.584;2023-04-01T02:09:44;41.95;;;22.38;;
11962;SDS011;62678;52.130;5.584;2023-04-01T02:12:12;37.55;;;21.10;;
11962;SDS011;62678;52.130;5.584;2023-04-01T02:14:43;39.35;;;21.30;;
11962;SDS011;62678;52.130;5.584;2023-04-01T02:17:14;39.58;;;21.83;;
11962;SDS011;62678;52.130;5.584;2023-04-01T02:19:44;42.78;;;22.60;;
11962;SDS011;62678;52.130;5.584;2023-04-01T02:22:16;39.55;;;22.50;;
11962;SDS011;62678;52.130;5.584;2023-04-01T02:24:46;39.20;;;23.05;;
11962;SDS011;62678;52.130;5.584;2023-04-01T02:27:14;38.22;;;22.58;;
11962;SDS011;62678;52.130;5.584;2023-04-01T02:29:41;47.47;;;23.60;;
11962;SDS011;62678;52.130;5.584;2023-04-01T02:32:08;41.53;;;24.10;;
11962;SDS011;62678;52.130;5.584;2023-04-01T02:34:36;40.60;;;22.95;;
11962;SDS011;62678;52.130;5.584;2023-04-01T02:37:03;37.60;;;22.13;;
11962;SDS011;62678;52.130;5.584;2023-04-01T02:39:32;39.40;;;21.75;;
11962;SDS011;62678;52.130;5.584;2023-04-01T02:41:59;36.83;;;21.63;;
11962;SDS011;62678;52.130;5.584;2023-04-01T02:44:26;38.35;;;21.20;;
11962;SDS011;62678;52.130;5.584;2023-04-01T02:46:53;38.42;;;21.77;;
11962;SDS011;62678;52.130;5.584;2023-04-01T02:49:20;38.88;;;21.80;;
11962;SDS011;62678;52.130;5.584;2023-04-01T02:51:47;37.83;;;21.67;;
11962;SDS011;62678;52.130;5.584;2023-04-01T02:54:13;32.40;;;18.77;;
11962;SDS011;62678;52.130;5.584;2023-04-01T02:56:42;28.63;;;17.60;;
11962;SDS011;62678;52.130;5.584;2023-04-01T02:59:09;25.30;;;16.38;;
11962;SDS011;62678;52.130;5.584;2023-04-01T03:01:36;23.00;;;16.08;;
11962;SDS011;62678;52.130;5.584;2023-04-01T03:04:03;26.02;;;16.58;;
11962;SDS011;62678;52.130;5.584;2023-04-01T03:06:30;25.02;;;16.50;;
11962;SDS011;62678;52.130;5.584;2023-04-01T03:08:57;26.65;;;16.35;;
11962;SDS011;62678;52.130;5.584;2023-04-01T03:11:24;25.85;;;17.08;;
11962;SDS011;62678;52.130;5.584;2023-04-01T03:13:53;30.25;;;18.73;;
11962;SDS011;62678;52.130;5.584;2023-04-01T03:16:20;28.27;;;18.27;;
11962;SDS011;62678;52.130;5.584;2023-04-01T03:18:46;30.33;;;19.75;;
11962;SDS011;62678;52.130;5.584;2023-04-01T03:21:15;25.75;;;17.25;;
11962;SDS011;62678;52.130;5.584;2023-04-01T03:23:43;27.75;;;17.70;;
11962;SDS011;62678;52.130;5.584;2023-04-01T03:26:10;25.70;;;16.77;;
11962;SDS011;62678;52.130;5.584;2023-04-01T03:28:38;26.63;;;17.02;;
11962;SDS011;62678;52.130;5.584;2023-04-01T03:31:06;29.00;;;17.60;;
11962;SDS011;62678;52.130;5.584;2023-04-01T03:33:33;24.83;;;15.90;;
11962;SDS011;62678;52.130;5.584;2023-04-01T03:36:00;22.30;;;15.63;;
11962;SDS011;62678;52.130;5.584;2023-04-01T03:38:28;23.55;;;16.05;;
11962;SDS011;62678;52.130;5.584;2023-04-01T03:40:55;28.30;;;16.55;;
11962;SDS011;62678;52.130;5.584;2023-04-01T03:43:22;25.50;;;16.98;;
11962;SDS011;62678;52.130;5.584;2023-04-01T03:45:50;25.17;;;16.15;;
11962;SDS011;62678;52.130;5.584;2023-04-01T03:48:18;24.90;;;16.10;;
11962;SDS011;62678;52.130;5.584;2023-04-01T03:50:45;24.60;;;15.43;;
11962;SDS011;62678;52.130;5.584;2023-04-01T03:53:13;28.13;;;16.75;;
11962;SDS011;62678;52.130;5.584;2023-04-01T03:55:40;25.95;;;15.90;;
11962;SDS011;62678;52.130;5.584;2023-04-01T03:58:07;22.85;;;15.50;;
11962;SDS011;62678;52.130;5.584;2023-04-01T04:00:34;26.23;;;15.38;;
11962;SDS011;62678;52.130;5.584;2023-04-01T04:03:01;26.33;;;16.08;;
11962;SDS011;62678;52.130;5.584;2023-04-01T04:05:29;22.80;;;14.40;;
11962;SDS011;62678;52.130;5.584;2023-04-01T04:07:57;22.40;;;14.27;;
11962;SDS011;62678;52.130;5.584;2023-04-01T04:10:24;24.77;;;15.15;;
11962;SDS011;62678;52.130;5.584;2023-04-01T04:12:51;29.52;;;16.75;;
11962;SDS011;62678;52.130;5.584;2023-04-01T04:15:18;27.95;;;14.55;;
11962;SDS011;62678;52.130;5.584;2023-04-01T04:17:45;24.92;;;14.85;;
11962;SDS011;62678;52.130;5.584;2023-04-01T04:20:13;29.55;;;16.77;;
11962;SDS011;62678;52.130;5.584;2023-04-01T04:22:41;28.08;;;16.45;;
11962;SDS011;62678;52.130;5.584;2023-04-01T04:25:08;33.20;;;18.08;;
11962;SDS011;62678;52.130;5.584;2023-04-01T04:27:35;32.20;;;17.70;;
11962;SDS011;62678;52.130;5.584;2023-04-01T04:30:02;34.75;;;19.50;;
11962;SDS011;62678;52.130;5.584;2023-04-01T04:32:31;41.10;;;21.60;;
11962;SDS011;62678;52.130;5.584;2023-04-01T04:34:58;45.78;;;22.52;;
11962;SDS011;62678;52.130;5.584;2023-04-01T04:37:25;49.05;;;23.58;;
11962;SDS011;62678;52.130;5.584;2023-04-01T04:39:53;57.13;;;26.02;;
11962;SDS011;62678;52.130;5.584;2023-04-01T04:42:20;56.92;;;25.50;;
11962;SDS011;62678;52.130;5.584;2023-04-01T04:44:47;60.78;;;27.08;;
11962;SDS011;62678;52.130;5.584;2023-04-01T04:47:14;66.07;;;27.65;;
11962;SDS011;62678;52.130;5.584;2023-04-01T04:49:41;61.80;;;26.65;;
11962;SDS011;62678;52.130;5.584;2023-04-01T04:52:08;66.18;;;26.50;;
11962;SDS011;62678;52.130;5.584;2023-04-01T04:54:35;65.63;;;26.05;;
11962;SDS011;62678;52.130;5.584;2023-04-01T04:57:03;61.33;;;26.75;;
11962;SDS011;62678;52.130;5.584;2023-04-01T04:59:30;64.75;;;24.58;;
11962;SDS011;62678;52.130;5.584;2023-04-01T05:01:57;63.83;;;25.52;;
11962;SDS011;62678;52.130;5.584;2023-04-01T05:04:24;69.43;;;26.08;;
11962;SDS011;62678;52.130;5.584;2023-04-01T05:06:51;73.97;;;25.73;;
11962;SDS011;62678;52.130;5.584;2023-04-01T05:09:18;71.40;;;26.13;;
11962;SDS011;62678;52.130;5.584;2023-04-01T05:11:45;65.72;;;25.35;;
11962;SDS011;62678;52.130;5.584;2023-04-01T05:14:13;68.03;;;25.52;;
11962;SDS011;62678;52.130;5.584;2023-04-01T05:16:41;68.90;;;26.13;;
11962;SDS011;62678;52.130;5.584;2023-04-01T05:19:08;63.63;;;24.08;;
11962;SDS011;62678;52.130;5.584;2023-04-01T05:21:35;72.72;;;26.90;;
11962;SDS011;62678;52.130;5.584;2023-04-01T05:24:02;67.50;;;24.55;;
11962;SDS011;62678;52.130;5.584;2023-04-01T05:26:29;56.50;;;22.60;;
11962;SDS011;62678;52.130;5.584;2023-04-01T05:28:57;57.60;;;22.98;;
11962;SDS011;62678;52.130;5.584;2023-04-01T05:31:26;63.45;;;23.10;;
11962;SDS011;62678;52.130;5.584;2023-04-01T05:33:52;56.50;;;20.92;;
11962;SDS011;62678;52.130;5.584;2023-04-01T05:36:20;53.13;;;20.52;;
11962;SDS011;62678;52.130;5.584;2023-04-01T05:38:47;54.55;;;20.73;;
11962;SDS011;62678;52.130;5.584;2023-04-01T05:41:14;50.70;;;19.08;;
11962;SDS011;62678;52.130;5.584;2023-04-01T05:43:41;46.97;;;18.90;;
11962;SDS011;62678;52.130;5.584;2023-04-01T05:46:08;51.72;;;18.90;;
11962;SDS011;62678;52.130;5.584;2023-04-01T05:48:36;43.35;;;17.33;;
11962;SDS011;62678;52.130;5.584;2023-04-01T05:51:03;46.75;;;17.88;;
11962;SDS011;62678;52.130;5.584;2023-04-01T05:53:31;47.75;;;16.55;;
11962;SDS011;62678;52.130;5.584;2023-04-01T05:56:01;40.72;;;15.20;;
11962;SDS011;62678;52.130;5.584;2023-04-01T05:58:33;40.38;;;15.20;;
11962;SDS011;62678;52.130;5.584;2023-04-01T06:01:01;32.20;;;13.20;;
11962;SDS011;62678;52.130;5.584;2023-04-01T06:03:28;30.58;;;11.95;;
11962;SDS011;62678;52.130;5.584;2023-04-01T06:05:57;28.38;;;12.40;;
11962;SDS011;62678;52.130;5.584;2023-04-01T06:08:24;26.70;;;11.85;;
11962;SDS011;62678;52.130;5.584;2023-04-01T06:10:53;19.13;;;9.13;;
11962;SDS011;62678;52.130;5.584;2023-04-01T06:13:32;15.25;;;8.05;;
11962;SDS011;62678;52.130;5.584;2023-04-01T06:16:10;14.55;;;7.70;;
11962;SDS011;62678;52.130;5.584;2023-04-01T06:18:50;16.55;;;7.15;;
11962;SDS011;62678;52.130;5.584;2023-04-01T06:21:37;16.45;;;8.20;;
11962;SDS011;62678;52.130;5.584;2023-04-01T06:24:27;18.90;;;8.48;;
11962;SDS011;62678;52.130;5.584;2023-04-01T06:27:07;16.52;;;7.78;;
11962;SDS011;62678;52.130;5.584;2023-04-01T06:32:46;16.80;;;8.35;;
11962;SDS011;62678;52.130;5.584;2023-04-01T06:35:36;15.32;;;7.55;;
11962;SDS011;62678;52.130;5.584;2023-04-01T06:38:25;15.35;;;7.18;;
11962;SDS011;62678;52.130;5.584;2023-04-01T06:44:06;13.20;;;7.30;;
11962;SDS011;62678;52.130;5.584;2023-04-01T06:46:43;13.35;;;7.05;;
11962;SDS011;62678;52.130;5.584;2023-04-01T06:49:21;15.40;;;7.32;;
11962;SDS011;62678;52.130;5.584;2023-04-01T06:51:59;14.50;;;6.95;;
11962;SDS011;62678;52.130;5.584;2023-04-01T06:54:36;11.25;;;6.63;;
11962;SDS011;62678;52.130;5.584;2023-04-01T06:57:09;11.40;;;6.60;;
11962;SDS011;62678;52.130;5.584;2023-04-01T06:59:46;14.40;;;6.65;;
11962;SDS011;62678;52.130;5.584;2023-04-01T07:02:18;11.63;;;7.00;;
11962;SDS011;62678;52.130;5.584;2023-04-01T07:04:52;11.50;;;6.68;;
11962;SDS011;62678;52.130;5.584;2023-04-01T07:07:24;9.05;;;5.85;;
11962;SDS011;62678;52.130;5.584;2023-04-01T07:09:58;8.98;;;5.22;;
11962;SDS011;62678;52.130;5.584;2023-04-01T07:12:31;9.25;;;5.28;;
11962;SDS011;62678;52.130;5.584;2023-04-01T07:15:11;7.50;;;4.22;;
11962;SDS011;62678;52.130;5.584;2023-04-01T07:17:45;4.97;;;3.35;;
11962;SDS011;62678;52.130;5.584;2023-04-01T07:20:18;5.53;;;3.50;;
11962;SDS011;62678;52.130;5.584;2023-04-01T07:22:49;4.07;;;2.70;;
11962;SDS011;62678;52.130;5.584;2023-04-01T07:25:20;3.97;;;2.40;;
11962;SDS011;62678;52.130;5.584;2023-04-01T07:27:51;3.45;;;2.17;;
11962;SDS011;62678;52.130;5.584;2023-04-01T07:30:19;3.10;;;2.60;;
11962;SDS011;62678;52.130;5.584;2023-04-01T07:32:49;5.75;;;2.60;;
11962;SDS011;62678;52.130;5.584;2023-04-01T07:35:21;4.38;;;3.03;;
11962;SDS011;62678;52.130;5.584;2023-04-01T07:37:56;7.70;;;6.38;;
11962;SDS011;62678;52.130;5.584;2023-04-01T07:40:45;5.05;;;3.15;;
11962;SDS011;62678;52.130;5.584;2023-04-01T07:46:11;5.88;;;4.38;;
11962;SDS011;62678;52.130;5.584;2023-04-01T07:48:47;8.90;;;6.22;;
11962;SDS011;62678;52.130;5.584;2023-04-01T07:51:23;8.15;;;5.57;;
11962;SDS011;62678;52.130;5.584;2023-04-01T07:53:57;8.27;;;4.32;;
11962;SDS011;62678;52.130;5.584;2023-04-01T07:56:33;6.75;;;4.65;;
11962;SDS011;62678;52.130;5.584;2023-04-01T07:59:08;6.75;;;4.80;;
11962;SDS011;62678;52.130;5.584;2023-04-01T08:01:43;13.70;;;9.65;;
11962;SDS011;62678;52.130;5.584;2023-04-01T08:04:21;6.43;;;4.50;;
11962;SDS011;62678;52.130;5.584;2023-04-01T08:06:56;7.85;;;5.22;;
11962;SDS011;62678;52.130;5.584;2023-04-01T08:09:30;6.20;;;4.50;;
11962;SDS011;62678;52.130;5.584;2023-04-01T08:12:07;6.22;;;4.20;;
11962;SDS011;62678;52.130;5.584;2023-04-01T08:14:44;6.28;;;3.90;;
11962;SDS011;62678;52.130;5.584;2023-04-01T08:17:23;5.05;;;4.05;;
11962;SDS011;62678;52.130;5.584;2023-04-01T08:20:02;8.15;;;4.20;;
11962;SDS011;62678;52.130;5.584;2023-04-01T08:22:50;5.88;;;4.60;;
11962;SDS011;62678;52.130;5.584;2023-04-01T08:25:21;7.75;;;4.53;;
11962;SDS011;62678;52.130;5.584;2023-04-01T08:27:55;6.72;;;4.40;;
11962;SDS011;62678;52.130;5.584;2023-04-01T08:30:25;5.47;;;4.40;;
11962;SDS011;62678;52.130;5.584;2023-04-01T08:32:58;8.98;;;4.93;;
11962;SDS011;62678;52.130;5.584;2023-04-01T08:35:34;7.60;;;5.38;;
11962;SDS011;62678;52.130;5.584;2023-04-01T08:38:05;7.00;;;5.38;;
11962;SDS011;62678;52.130;5.584;2023-04-01T08:40:55;9.63;;;7.07;;
11962;SDS011;62678;52.130;5.584;2023-04-01T08:43:33;11.15;;;8.13;;
11962;SDS011;62678;52.130;5.584;2023-04-01T08:46:19;12.02;;;8.90;;
11962;SDS011;62678;52.130;5.584;2023-04-01T08:49:12;12.38;;;8.25;;
11962;SDS011;62678;52.130;5.584;2023-04-01T08:52:01;12.13;;;8.05;;
11962;SDS011;62678;52.130;5.584;2023-04-01T08:54:44;8.48;;;7.07;;
11962;SDS011;62678;52.130;5.584;2023-04-01T08:57:25;13.73;;;8.45;;
11962;SDS011;62678;52.130;5.584;2023-04-01T09:00:13;10.70;;;7.65;;
11962;SDS011;62678;52.130;5.584;2023-04-01T09:02:51;10.73;;;7.60;;
11962;SDS011;62678;52.130;5.584;2023-04-01T09:05:52;12.73;;;8.25;;
11962;SDS011;62678;52.130;5.584;2023-04-01T09:08:45;9.93;;;7.93;;
11962;SDS011;62678;52.130;5.584;2023-04-01T09:11:26;10.80;;;8.32;;
11962;SDS011;62678;52.130;5.584;2023-04-01T09:14:13;10.23;;;8.15;;
11962;SDS011;62678;52.130;5.584;2023-04-01T09:20:01;13.20;;;9.57;;
11962;SDS011;62678;52.130;5.584;2023-04-01T09:23:02;12.55;;;9.82;;
11962;SDS011;62678;52.130;5.584;2023-04-01T09:26:02;13.00;;;9.18;;
11962;SDS011;62678;52.130;5.584;2023-04-01T09:28:50;12.50;;;10.27;;
11962;SDS011;62678;52.130;5.584;2023-04-01T09:31:45;12.55;;;9.80;;
11962;SDS011;62678;52.130;5.584;2023-04-01T09:34:30;12.23;;;10.15;;
11962;SDS011;62678;52.130;5.584;2023-04-01T09:37:20;15.20;;;11.43;;
11962;SDS011;62678;52.130;5.584;2023-04-01T09:42:42;10.88;;;9.13;;
11962;SDS011;62678;52.130;5.584;2023-04-01T09:45:16;10.55;;;8.98;;
11962;SDS011;62678;52.130;5.584;2023-04-01T09:47:56;14.00;;;10.85;;
11962;SDS011;62678;52.130;5.584;2023-04-01T09:50:33;11.32;;;9.65;;
11962;SDS011;62678;52.130;5.584;2023-04-01T09:53:17;11.82;;;9.93;;
11962;SDS011;62678;52.130;5.584;2023-04-01T10:02:13;11.63;;;9.85;;
11962;SDS011;62678;52.130;5.584;2023-04-01T10:05:33;12.50;;;10.00;;
11962;SDS011;62678;52.130;5.584;2023-04-01T10:14:50;12.40;;;9.90;;
11962;SDS011;62678;52.130;5.584;2023-04-01T10:17:49;12.30;;;9.75;;
11962;SDS011;62678;52.130;5.584;2023-04-01T10:20:52;9.52;;;8.52;;
11962;SDS011;62678;52.130;5.584;2023-04-01T10:23:30;8.52;;;7.65;;
11962;SDS011;62678;52.130;5.584;2023-04-01T10:26:26;8.25;;;6.60;;
11962;SDS011;62678;52.130;5.584;2023-04-01T10:32:30;6.22;;;5.43;;
11962;SDS011;62678;52.130;5.584;2023-04-01T10:41:38;6.93;;;6.00;;
11962;SDS011;62678;52.130;5.584;2023-04-01T10:44:44;9.27;;;6.72;;
11962;SDS011;62678;52.130;5.584;2023-04-01T10:50:56;10.43;;;8.25;;
11962;SDS011;62678;52.130;5.584;2023-04-01T10:53:45;11.60;;;8.10;;
11962;SDS011;62678;52.130;5.584;2023-04-01T10:56:29;9.27;;;7.63;;
11962;SDS011;62678;52.130;5.584;2023-04-01T10:59:36;8.05;;;6.72;;
11962;SDS011;62678;52.130;5.584;2023-04-01T11:02:55;9.80;;;8.18;;
11962;SDS011;62678;52.130;5.584;2023-04-01T11:09:12;11.95;;;8.50;;
11962;SDS011;62678;52.130;5.584;2023-04-01T11:15:23;9.55;;;8.45;;
11962;SDS011;62678;52.130;5.584;2023-04-01T11:18:25;6.03;;;5.50;;
11962;SDS011;62678;52.130;5.584;2023-04-01T11:21:21;10.10;;;8.70;;
11962;SDS011;62678;52.130;5.584;2023-04-01T11:27:16;5.20;;;4.13;;
11962;SDS011;62678;52.130;5.584;2023-04-01T11:30:09;8.80;;;6.60;;
11962;SDS011;62678;52.130;5.584;2023-04-01T11:35:46;5.30;;;4.70;;
11962;SDS011;62678;52.130;5.584;2023-04-01T11:38:40;6.57;;;5.40;;
11962;SDS011;62678;52.130;5.584;2023-04-01T11:41:24;7.90;;;6.38;;
11962;SDS011;62678;52.130;5.584;2023-04-01T11:44:02;4.70;;;4.22;;
11962;SDS011;62678;52.130;5.584;2023-04-01T11:46:59;7.95;;;6.85;;
11962;SDS011;62678;52.130;5.584;2023-04-01T11:49:41;5.72;;;5.00;;
11962;SDS011;62678;52.130;5.584;2023-04-01T11:52:21;5.57;;;4.50;;
11962;SDS011;62678;52.130;5.584;2023-04-01T11:55:13;6.90;;;6.15;;
11962;SDS011;62678;52.130;5.584;2023-04-01T11:57:51;4.50;;;4.10;;
11962;SDS011;62678;52.130;5.584;2023-04-01T12:00:45;6.30;;;4.80;;
11962;SDS011;62678;52.130;5.584;2023-04-01T12:03:37;5.43;;;4.93;;
11962;SDS011;62678;52.130;5.584;2023-04-01T12:06:25;5.07;;;4.57;;
11962;SDS011;62678;52.130;5.584;2023-04-01T12:09:00;5.20;;;4.70;;
11962;SDS011;62678;52.130;5.584;2023-04-01T12:11:38;5.30;;;4.80;;
11962;SDS011;62678;52.130;5.584;2023-04-01T12:14:13;6.53;;;5.80;;
11962;SDS011;62678;52.130;5.584;2023-04-01T12:16:48;6.68;;;5.78;;
11962;SDS011;62678;52.130;5.584;2023-04-01T12:19:29;7.28;;;5.35;;
11962;SDS011;62678;52.130;5.584;2023-04-01T12:22:07;6.10;;;5.03;;
11962;SDS011;62678;52.130;5.584;2023-04-01T12:24:47;6.88;;;5.38;;
11962;SDS011;62678;52.130;5.584;2023-04-01T12:27:29;6.57;;;5.72;;
11962;SDS011;62678;52.130;5.584;2023-04-01T12:33:00;7.68;;;6.57;;
11962;SDS011;62678;52.130;5.584;2023-04-01T12:35:45;6.47;;;5.60;;
11962;SDS011;62678;52.130;5.584;2023-04-01T12:38:22;7.15;;;6.30;;
11962;SDS011;62678;52.130;5.584;2023-04-01T12:41:02;7.93;;;6.22;;
11962;SDS011;62678;52.130;5.584;2023-04-01T12:43:52;6.90;;;5.38;;
11962;SDS011;62678;52.130;5.584;2023-04-01T12:46:32;6.80;;;5.70;;
11962;SDS011;62678;52.130;5.584;2023-04-01T12:52:15;10.98;;;8.63;;
11962;SDS011;62678;52.130;5.584;2023-04-01T13:01:04;7.93;;;6.60;;
11962;SDS011;62678;52.130;5.584;2023-04-01T13:07:02;6.25;;;5.55;;
11962;SDS011;62678;52.130;5.584;2023-04-01T13:09:50;10.05;;;7.10;;
11962;SDS011;62678;52.130;5.584;2023-04-01T13:12:34;9.10;;;7.38;;
11962;SDS011;62678;52.130;5.584;2023-04-01T13:15:16;11.00;;;8.10;;
11962;SDS011;62678;52.130;5.584;2023-04-01T13:17:52;8.82;;;7.43;;
11962;SDS011;62678;52.130;5.584;2023-04-01T13:20:25;10.45;;;8.25;;
11962;SDS011;62678;52.130;5.584;2023-04-01T13:23:06;11.52;;;8.75;;
11962;SDS011;62678;52.130;5.584;2023-04-01T13:25:43;9.80;;;6.55;;
11962;SDS011;62678;52.130;5.584;2023-04-01T13:28:15;8.00;;;6.03;;
11962;SDS011;62678;52.130;5.584;2023-04-01T13:30:47;7.97;;;6.25;;
11962;SDS011;62678;52.130;5.584;2023-04-01T13:33:25;7.93;;;6.53;;
11962;SDS011;62678;52.130;5.584;2023-04-01T13:36:02;9.60;;;7.00;;
11962;SDS011;62678;52.130;5.584;2023-04-01T13:38:48;9.48;;;7.20;;
11962;SDS011;62678;52.130;5.584;2023-04-01T13:41:30;10.57;;;7.35;;
11962;SDS011;62678;52.130;5.584;2023-04-01T13:44:09;9.65;;;7.13;;
11962;SDS011;62678;52.130;5.584;2023-04-01T13:46:49;12.45;;;8.05;;
11962;SDS011;62678;52.130;5.584;2023-04-01T13:49:38;11.98;;;8.75;;
11962;SDS011;62678;52.130;5.584;2023-04-01T13:52:37;11.75;;;7.68;;
11962;SDS011;62678;52.130;5.584;2023-04-01T13:55:20;10.38;;;6.50;;
11962;SDS011;62678;52.130;5.584;2023-04-01T13:58:07;9.27;;;5.80;;
11962;SDS011;62678;52.130;5.584;2023-04-01T14:01:05;9.57;;;8.50;;
11962;SDS011;62678;52.130;5.584;2023-04-01T14:06:36;11.70;;;8.95;;
11962;SDS011;62678;52.130;5.584;2023-04-01T14:09:25;12.90;;;9.60;;
11962;SDS011;62678;52.130;5.584;2023-04-01T14:12:04;13.93;;;9.52;;
11962;SDS011;62678;52.130;5.584;2023-04-01T14:14:43;15.35;;;11.55;;
11962;SDS011;62678;52.130;5.584;2023-04-01T14:17:31;10.35;;;7.10;;
11962;SDS011;62678;52.130;5.584;2023-04-01T14:20:25;8.30;;;6.18;;
11962;SDS011;62678;52.130;5.584;2023-04-01T14:23:02;7.30;;;5.93;;
11962;SDS011;62678;52.130;5.584;2023-04-01T14:25:50;8.48;;;6.68;;
11962;SDS011;62678;52.130;5.584;2023-04-01T14:28:31;8.48;;;6.82;;
11962;SDS011;62678;52.130;5.584;2023-04-01T14:34:21;9.80;;;7.35;;
11962;SDS011;62678;52.130;5.584;2023-04-01T14:37:01;8.80;;;7.20;;
11962;SDS011;62678;52.130;5.584;2023-04-01T14:39:54;8.93;;;7.00;;
11962;SDS011;62678;52.130;5.584;2023-04-01T14:42:45;9.68;;;7.82;;
11962;SDS011;62678;52.130;5.584;2023-04-01T14:45:39;11.25;;;8.73;;
11962;SDS011;62678;52.130;5.584;2023-04-01T14:48:17;10.07;;;7.82;;
11962;SDS011;62678;52.130;5.584;2023-04-01T14:50:51;9.45;;;7.35;;
11962;SDS011;62678;52.130;5.584;2023-04-01T14:53:26;9.77;;;7.43;;
11962;SDS011;62678;52.130;5.584;2023-04-01T14:55:55;9.20;;;6.93;;
11962;SDS011;62678;52.130;5.584;2023-04-01T14:58:25;7.18;;;6.45;;
11962;SDS011;62678;52.130;5.584;2023-04-01T15:01:09;8.10;;;6.50;;
11962;SDS011;62678;52.130;5.584;2023-04-01T15:03:53;7.20;;;6.50;;
11962;SDS011;62678;52.130;5.584;2023-04-01T15:06:40;7.95;;;6.68;;
11962;SDS011;62678;52.130;5.584;2023-04-01T15:09:22;7.25;;;6.55;;
11962;SDS011;62678;52.130;5.584;2023-04-01T15:11:59;7.40;;;6.50;;
11962;SDS011;62678;52.130;5.584;2023-04-01T15:14:38;7.22;;;6.50;;
11962;SDS011;62678;52.130;5.584;2023-04-01T15:17:19;7.80;;;6.90;;
11962;SDS011;62678;52.130;5.584;2023-04-01T15:20:03;7.97;;;6.93;;
11962;SDS011;62678;52.130;5.584;2023-04-01T15:22:50;7.25;;;5.65;;
11962;SDS011;62678;52.130;5.584;2023-04-01T15:25:39;5.80;;;5.20;;
11962;SDS011;62678;52.130;5.584;2023-04-01T15:28:20;6.88;;;6.00;;
11962;SDS011;62678;52.130;5.584;2023-04-01T15:30:56;6.22;;;5.63;;
11962;SDS011;62678;52.130;5.584;2023-04-01T15:33:32;5.93;;;5.40;;
11962;SDS011;62678;52.130;5.584;2023-04-01T15:36:10;5.57;;;5.07;;
11962;SDS011;62678;52.130;5.584;2023-04-01T15:38:48;6.65;;;5.95;;
11962;SDS011;62678;52.130;5.584;2023-04-01T15:41:20;5.82;;;5.13;;
11962;SDS011;62678;52.130;5.584;2023-04-01T15:43:52;6.28;;;4.57;;
11962;SDS011;62678;52.130;5.584;2023-04-01T15:46:21;5.78;;;5.18;;
11962;SDS011;62678;52.130;5.584;2023-04-01T15:49:19;5.95;;;5.00;;
11962;SDS011;62678;52.130;5.584;2023-04-01T15:51:58;6.13;;;4.72;;
11962;SDS011;62678;52.130;5.584;2023-04-01T15:57:38;5.65;;;5.15;;
11962;SDS011;62678;52.130;5.584;2023-04-01T16:03:09;5.35;;;4.95;;
11962;SDS011;62678;52.130;5.584;2023-04-01T16:05:50;5.85;;;5.35;;
11962;SDS011;62678;52.130;5.584;2023-04-01T16:08:49;5.85;;;5.35;;
11962;SDS011;62678;52.130;5.584;2023-04-01T16:11:29;5.82;;;5.32;;
11962;SDS011;62678;52.130;5.584;2023-04-01T16:14:09;5.72;;;5.22;;
11962;SDS011;62678;52.130;5.584;2023-04-01T16:16:49;6.55;;;5.95;;
11962;SDS011;62678;52.130;5.584;2023-04-01T16:19:37;7.00;;;6.28;;
11962;SDS011;62678;52.130;5.584;2023-04-01T16:22:12;7.13;;;6.43;;
11962;SDS011;62678;52.130;5.584;2023-04-01T16:24:44;6.70;;;6.00;;
11962;SDS011;62678;52.130;5.584;2023-04-01T16:27:14;6.70;;;6.10;;
11962;SDS011;62678;52.130;5.584;2023-04-01T16:29:51;6.20;;;5.60;;
11962;SDS011;62678;52.130;5.584;2023-04-01T16:32:31;7.15;;;6.38;;
11962;SDS011;62678;52.130;5.584;2023-04-01T16:35:13;7.68;;;6.88;;
11962;SDS011;62678;52.130;5.584;2023-04-01T16:37:49;8.13;;;6.55;;
11962;SDS011;62678;52.130;5.584;2023-04-01T16:40:23;6.72;;;6.13;;
11962;SDS011;62678;52.130;5.584;2023-04-01T16:43:05;8.70;;;6.85;;
11962;SDS011;62678;52.130;5.584;2023-04-01T16:45:38;9.52;;;7.97;;
11962;SDS011;62678;52.130;5.584;2023-04-01T16:48:13;8.68;;;7.80;;
11962;SDS011;62678;52.130;5.584;2023-04-01T16:50:43;9.82;;;7.45;;
11962;SDS011;62678;52.130;5.584;2023-04-01T16:53:18;8.50;;;7.75;;